Terminal Aerodrome Forecast
Issued by NWS Mt. Holly, NJ

Home | Current Version | Previous Version | Text Only | Print | Product List | Glossary On
Versions: 1 2 3 4 5 6 7 8 9 10 11 12 13 14
876
FTUS41 KPHI 221133
TAFACY
TAF
KACY 221133Z 2212/2312 21005KT P6SM FEW025 BKN200
      TEMPO 2212/2214 6SM BR
     FM221400 21011KT P6SM FEW035 SCT200
     FM221800 20014G24KT P6SM SCT060
     FM230100 20010G18KT P6SM SCT060 BKN250
     FM230800 23007KT P6SM BKN060=

USA.gov is the U.S. government's official web portal to all federal, state and local government web resources and services.